Time;durP1;ratioP1;P1;durP2;ratioP2;P2;SDS_P1;SDS_P2;PMS_P1;PMS_P2;Temp;Humidity;BMP_temperature;BMP_pressure;BME280_temperature;BME280_humidity;BME280_pressure;Samples;Min_cycle;Max_cycle;Signal;HPM_P1;HPM_P2
2022/04/07 00:01:09;;;;;;;0.70;0.70;;;12.00;65.90;;;;;;4975938;28;20051;-66
2022/04/07 00:03:35;;;;;;;1.10;0.80;;;12.00;65.90;;;;;;4990239;28;20031;-66
2022/04/07 00:06:01;;;;;;;0.70;0.70;;;12.00;66.30;;;;;;4977338;28;20041;-66
2022/04/07 00:08:27;;;;;;;0.95;0.80;;;12.00;66.30;;;;;;4961041;28;20035;-65
2022/04/07 00:10:53;;;;;;;0.90;0.70;;;12.10;66.40;;;;;;4958961;28;20042;-65
2022/04/07 00:13:19;;;;;;;0.95;0.50;;;12.10;66.60;;;;;;4975736;28;20410;-66
2022/04/07 00:15:45;;;;;;;1.95;0.90;;;12.10;66.60;;;;;;4961068;28;20042;-66
2022/04/07 00:18:10;;;;;;;1.25;0.70;;;12.10;66.70;;;;;;4970456;28;20033;-65
2022/04/07 00:20:36;;;;;;;0.68;0.68;;;12.10;66.70;;;;;;4957838;28;20353;-66
2022/04/07 00:23:03;;;;;;;0.50;0.50;;;12.10;66.80;;;;;;4962417;28;20034;-66
2022/04/07 00:25:30;;;;;;;0.80;0.80;;;12.10;66.80;;;;;;4975509;28;20039;-65
2022/04/07 00:27:56;;;;;;;1.27;1.00;;;12.10;66.90;;;;;;4962214;28;20121;-66
2022/04/07 00:30:22;;;;;;;1.58;0.80;;;12.10;67.10;;;;;;4955326;28;20134;-66
2022/04/07 00:32:49;;;;;;;1.45;0.90;;;12.10;67.10;;;;;;4973825;28;20409;-66
2022/04/07 00:35:16;;;;;;;1.30;0.82;;;12.10;67.10;;;;;;4968460;28;20037;-67
2022/04/07 00:37:42;;;;;;;1.77;0.70;;;12.10;67.30;;;;;;4956608;28;20118;-68
2022/04/07 00:40:09;;;;;;;1.05;0.98;;;12.10;67.30;;;;;;4969822;28;20565;-66
2022/04/07 00:42:47;;;;;;;0.95;0.93;;;12.10;67.30;;;;;;4971147;28;20030;-65
2022/04/07 00:45:16;;;;;;;0.80;0.80;;;12.10;68.40;;;;;;4961857;28;20070;-67
2022/04/07 00:47:43;;;;;;;0.75;0.75;;;12.10;67.40;;;;;;4974852;28;20022;-66
2022/04/07 00:50:14;;;;;;;1.17;0.88;;;12.10;67.60;;;;;;4975608;28;20036;-66
2022/04/07 00:53:02;;;;;;;0.80;0.80;;;12.00;68.00;;;;;;4957936;28;20446;-66
2022/04/07 00:55:29;;;;;;;0.82;0.82;;;12.00;68.10;;;;;;4964040;28;20109;-66
2022/04/07 00:57:55;;;;;;;1.10;0.80;;;12.00;67.70;;;;;;4974794;28;20026;-66
2022/04/07 01:00:20;;;;;;;0.90;0.90;;;12.00;67.60;;;;;;4960815;28;20027;-66
2022/04/07 01:02:46;;;;;;;0.85;0.85;;;12.00;67.70;;;;;;4955923;28;20027;-66
2022/04/07 01:05:12;;;;;;;1.15;0.90;;;12.00;68.00;;;;;;4970778;28;20039;-66
2022/04/07 01:07:39;;;;;;;0.80;0.80;;;12.00;68.00;;;;;;4960872;28;20031;-66
2022/04/07 01:10:09;;;;;;;1.48;0.90;;;12.00;68.10;;;;;;4965377;28;20421;-65
2022/04/07 01:12:37;;;;;;;0.80;0.75;;;11.90;68.10;;;;;;4973886;28;20030;-65
2022/04/07 01:15:06;;;;;;;1.15;0.80;;;11.90;68.40;;;;;;4968940;28;20037;-68
2022/04/07 01:17:32;;;;;;;0.80;0.80;;;11.90;68.30;;;;;;4965112;28;20062;-67
2022/04/07 01:19:58;;;;;;;0.98;0.70;;;11.90;68.30;;;;;;4973830;28;20514;-66
2022/04/07 01:22:23;;;;;;;0.60;0.60;;;11.90;68.30;;;;;;4976089;28;20035;-67
2022/04/07 01:24:49;;;;;;;0.70;0.68;;;11.90;68.30;;;;;;4953922;28;20095;-65
2022/04/07 01:27:17;;;;;;;0.60;0.60;;;11.90;68.30;;;;;;4954176;28;20498;-66
2022/04/07 01:29:44;;;;;;;0.60;0.60;;;11.90;68.50;;;;;;4952477;28;20050;-65
2022/04/07 01:32:43;;;;;;;0.80;0.70;;;11.90;68.50;;;;;;4968736;28;20576;-67
2022/04/07 01:35:10;;;;;;;0.73;0.63;;;11.90;69.30;;;;;;4970179;28;20029;-65
2022/04/07 01:37:37;;;;;;;0.70;0.70;;;11.90;68.80;;;;;;4954811;28;20086;-65
2022/04/07 01:40:04;;;;;;;1.42;0.63;;;11.80;68.80;;;;;;4969200;28;20569;-65
2022/04/07 01:42:32;;;;;;;0.60;0.60;;;11.80;69.00;;;;;;4955901;28;20141;-66
2022/04/07 01:45:01;;;;;;;1.83;0.80;;;11.80;69.00;;;;;;4974351;28;20313;-66
2022/04/07 01:47:28;;;;;;;0.80;0.60;;;11.80;69.20;;;;;;4966513;28;20126;-66
2022/04/07 01:50:07;;;;;;;0.60;0.60;;;11.80;69.00;;;;;;4967935;28;20073;-66
2022/04/07 01:52:35;;;;;;;0.65;0.65;;;11.80;69.70;;;;;;4957368;28;20054;-65
2022/04/07 01:55:01;;;;;;;0.80;0.80;;;11.80;69.50;;;;;;4970773;28;20050;-67
2022/04/07 01:57:27;;;;;;;0.70;0.63;;;11.80;69.40;;;;;;4964408;28;20042;-68
2022/04/07 01:59:53;;;;;;;0.68;0.60;;;11.70;69.50;;;;;;4971241;28;20133;-66
2022/04/07 02:02:21;;;;;;;0.80;0.80;;;11.80;69.90;;;;;;4977604;28;20039;-65
2022/04/07 02:05:03;;;;;;;0.70;0.60;;;11.70;69.70;;;;;;4953761;28;20495;-66
2022/04/07 02:07:32;;;;;;;0.70;0.70;;;11.70;70.10;;;;;;4954899;28;20571;-67
2022/04/07 02:09:59;;;;;;;1.00;0.75;;;11.70;70.30;;;;;;4967018;28;20533;-65
2022/04/07 02:12:27;;;;;;;1.10;0.80;;;11.70;70.00;;;;;;4974351;28;20510;-66
2022/04/07 02:14:53;;;;;;;1.00;0.75;;;11.70;70.20;;;;;;4970691;28;20047;-66
2022/04/07 02:17:22;;;;;;;0.75;0.75;;;11.70;70.40;;;;;;4955072;28;20051;-66
2022/04/07 02:19:53;;;;;;;0.73;0.65;;;11.60;70.80;;;;;;4966324;28;20435;-66
2022/04/07 02:22:19;;;;;;;0.60;0.60;;;11.60;70.70;;;;;;4975093;28;20419;-66
2022/04/07 02:24:45;;;;;;;0.50;0.50;;;11.60;70.30;;;;;;4956128;28;20046;-70
2022/04/07 02:27:11;;;;;;;0.65;0.50;;;11.60;70.30;;;;;;4954729;28;20046;-68
2022/04/07 02:29:37;;;;;;;0.63;0.60;;;11.50;70.30;;;;;;4955737;28;20035;-65
2022/04/07 02:32:04;;;;;;;2.70;0.50;;;11.50;70.20;;;;;;4954455;28;20042;-65
2022/04/07 02:34:29;;;;;;;0.38;0.38;;;11.50;70.20;;;;;;4954028;28;20035;-66
2022/04/07 02:36:55;;;;;;;0.50;0.50;;;11.50;70.20;;;;;;4973278;28;20520;-65
2022/04/07 02:39:21;;;;;;;0.60;0.60;;;11.40;70.20;;;;;;4965931;28;20047;-66
2022/04/07 02:41:47;;;;;;;0.55;0.45;;;11.40;70.20;;;;;;4959260;28;20130;-67
2022/04/07 02:44:12;;;;;;;0.50;0.50;;;11.40;70.30;;;;;;4972323;28;20173;-66
2022/04/07 02:46:38;;;;;;;0.85;0.60;;;11.30;70.40;;;;;;4975925;28;20502;-65
2022/04/07 02:49:07;;;;;;;0.57;0.57;;;11.30;70.40;;;;;;4958624;28;20538;-67
2022/04/07 02:51:32;;;;;;;0.50;0.50;;;11.30;70.50;;;;;;4965194;28;20042;-65
2022/04/07 02:53:58;;;;;;;0.98;0.60;;;11.30;70.50;;;;;;4977877;28;20049;-67
2022/04/07 02:56:25;;;;;;;0.50;0.50;;;11.20;70.40;;;;;;4963637;28;20043;-67
2022/04/07 02:58:51;;;;;;;0.68;0.50;;;11.20;70.60;;;;;;4959270;28;20034;-66
2022/04/07 03:01:17;;;;;;;0.40;0.40;;;11.20;70.50;;;;;;4977948;28;20037;-65
2022/04/07 03:03:43;;;;;;;0.70;0.68;;;11.20;70.40;;;;;;4967299;28;20260;-67
2022/04/07 03:06:09;;;;;;;0.57;0.50;;;11.10;70.40;;;;;;4955535;28;20503;-67
2022/04/07 03:08:34;;;;;;;0.82;0.52;;;11.10;70.20;;;;;;4973344;28;20054;-66
2022/04/07 03:11:00;;;;;;;0.60;0.45;;;11.10;70.20;;;;;;4977987;28;20045;-67
2022/04/07 03:13:26;;;;;;;0.93;0.50;;;11.10;70.00;;;;;;4979643;28;20315;-66
2022/04/07 03:15:52;;;;;;;0.60;0.43;;;11.10;69.90;;;;;;4963875;28;20045;-65
2022/04/07 03:18:18;;;;;;;0.40;0.40;;;11.10;69.90;;;;;;4961922;28;20093;-65
2022/04/07 03:20:43;;;;;;;1.48;0.60;;;11.10;69.90;;;;;;4978782;28;20490;-66
2022/04/07 03:23:09;;;;;;;1.05;0.30;;;11.10;69.70;;;;;;4973731;28;20027;-65
2022/04/07 03:25:36;;;;;;;0.63;0.38;;;11.10;69.50;;;;;;4960892;28;20066;-64
2022/04/07 03:28:03;;;;;;;0.73;0.50;;;11.10;69.40;;;;;;4974663;28;20046;-66
2022/04/07 03:30:28;;;;;;;1.25;0.50;;;11.00;69.20;;;;;;4978932;28;20069;-65
2022/04/07 03:32:54;;;;;;;1.05;0.65;;;11.00;69.00;;;;;;4960780;28;20059;-65
2022/04/07 03:35:20;;;;;;;0.75;0.47;;;11.00;68.80;;;;;;4967949;28;20038;-66
2022/04/07 03:37:46;;;;;;;0.90;0.50;;;11.00;68.60;;;;;;4977260;28;20035;-66
2022/04/07 03:40:12;;;;;;;0.60;0.40;;;11.00;68.50;;;;;;4962197;28;20045;-66
2022/04/07 03:42:38;;;;;;;0.85;0.40;;;10.90;68.40;;;;;;4960053;28;20228;-65
2022/04/07 03:45:04;;;;;;;0.47;0.40;;;10.90;68.30;;;;;;4973415;28;20031;-67
2022/04/07 03:47:30;;;;;;;0.95;0.57;;;10.90;68.30;;;;;;4965186;28;20038;-67
2022/04/07 03:49:56;;;;;;;0.60;0.50;;;10.90;68.20;;;;;;4958321;28;20031;-67
2022/04/07 03:52:21;;;;;;;0.40;0.40;;;10.80;68.10;;;;;;4972683;28;20038;-68
2022/04/07 03:54:47;;;;;;;0.43;0.40;;;10.80;68.10;;;;;;4978666;28;20039;-66
2022/04/07 03:57:13;;;;;;;0.60;0.40;;;10.80;68.10;;;;;;4978065;28;20033;-65
2022/04/07 03:59:42;;;;;;;0.40;0.40;;;10.80;68.10;;;;;;4968619;28;20039;-65
2022/04/07 04:02:08;;;;;;;0.98;0.70;;;10.70;68.00;;;;;;4970079;28;20528;-66
2022/04/07 04:04:33;;;;;;;0.40;0.40;;;10.70;68.10;;;;;;4958420;28;20050;-65
2022/04/07 04:06:59;;;;;;;0.50;0.50;;;10.70;68.10;;;;;;4972641;28;20035;-66
2022/04/07 04:09:25;;;;;;;1.58;0.45;;;10.60;68.10;;;;;;4956655;28;20125;-65
2022/04/07 04:11:52;;;;;;;0.45;0.45;;;10.60;68.20;;;;;;4955387;28;20050;-67
2022/04/07 04:14:18;;;;;;;1.67;0.60;;;10.60;68.20;;;;;;4956120;28;20084;-67
2022/04/07 04:16:44;;;;;;;4.93;0.60;;;10.60;68.20;;;;;;4973702;28;20038;-66
2022/04/07 04:19:10;;;;;;;0.70;0.50;;;10.60;68.30;;;;;;4977409;28;20037;-66
2022/04/07 04:21:36;;;;;;;2.20;0.45;;;10.50;68.30;;;;;;4976933;28;20058;-67
2022/04/07 04:24:02;;;;;;;1.27;0.47;;;10.50;68.50;;;;;;4960043;28;20046;-66
2022/04/07 04:26:28;;;;;;;0.80;0.40;;;10.40;68.40;;;;;;4971997;28;20031;-65
2022/04/07 04:28:54;;;;;;;8.88;3.97;;;10.40;68.50;;;;;;4956146;28;20066;-66
2022/04/07 04:31:24;;;;;;;8.20;5.45;;;10.40;68.50;;;;;;4963272;28;20751;-66
2022/04/07 04:33:54;;;;;;;1.95;1.85;;;10.40;68.60;;;;;;4977230;28;20695;-67
2022/04/07 04:36:20;;;;;;;1.52;1.42;;;10.40;68.70;;;;;;4959188;28;20433;-65
2022/04/07 04:38:46;;;;;;;1.80;1.40;;;10.40;68.60;;;;;;4971188;28;20042;-66
2022/04/07 04:41:12;;;;;;;1.52;0.88;;;10.40;68.80;;;;;;4953082;28;20406;-66
2022/04/07 04:43:38;;;;;;;2.50;1.23;;;10.40;68.80;;;;;;4968516;28;20034;-66
2022/04/07 04:46:03;;;;;;;1.33;0.93;;;10.40;68.80;;;;;;4979213;28;20457;-66
2022/04/07 04:48:29;;;;;;;0.88;0.80;;;10.40;68.80;;;;;;4961479;28;20050;-66
2022/04/07 04:50:56;;;;;;;2.58;1.92;;;10.40;68.80;;;;;;4961643;28;20069;-68
2022/04/07 04:53:22;;;;;;;2.53;2.33;;;10.40;69.00;;;;;;4979793;28;20133;-69
2022/04/07 04:55:48;;;;;;;1.33;1.23;;;10.40;69.00;;;;;;4965949;28;20054;-68
2022/04/07 04:58:14;;;;;;;0.77;0.75;;;10.40;69.00;;;;;;4958864;28;20162;-68
2022/04/07 05:00:41;;;;;;;2.58;0.70;;;10.40;69.00;;;;;;4976941;28;20066;-69
2022/04/07 05:03:06;;;;;;;1.40;1.30;;;10.40;69.00;;;;;;4970560;28;20081;-69
2022/04/07 05:05:32;;;;;;;4.38;0.60;;;10.40;69.00;;;;;;4964664;28;20030;-67
2022/04/07 05:07:58;;;;;;;2.40;0.50;;;10.50;69.00;;;;;;4964130;28;20035;-67
2022/04/07 05:10:24;;;;;;;3.25;0.60;;;10.40;69.00;;;;;;4956876;28;20069;-65
2022/04/07 05:12:51;;;;;;;2.67;1.10;;;10.40;69.80;;;;;;4973748;28;20434;-66
2022/04/07 05:15:16;;;;;;;0.40;0.40;;;10.40;69.00;;;;;;4969647;28;20035;-65
2022/04/07 05:17:55;;;;;;;0.80;0.80;;;10.50;69.10;;;;;;4966502;28;20041;-66
2022/04/07 05:20:21;;;;;;;2.10;0.90;;;10.50;69.20;;;;;;4959314;28;20063;-65
2022/04/07 05:22:47;;;;;;;1.08;0.90;;;10.50;69.20;;;;;;4958285;28;20138;-65
2022/04/07 05:25:13;;;;;;;2.03;0.70;;;10.50;69.20;;;;;;4977541;28;20055;-68
2022/04/07 05:27:39;;;;;;;1.02;0.90;;;10.50;69.30;;;;;;4964344;28;20038;-68
2022/04/07 05:30:06;;;;;;;4.90;2.58;;;10.50;69.40;;;;;;4957807;28;20023;-69
2022/04/07 05:32:32;;;;;;;2.15;0.90;;;10.50;69.70;;;;;;4975598;28;20576;-68
2022/04/07 05:34:58;;;;;;;2.05;1.05;;;10.50;69.60;;;;;;4973766;28;20035;-68
2022/04/07 05:37:24;;;;;;;1.63;0.68;;;10.50;69.70;;;;;;4958206;28;20047;-65
2022/04/07 05:39:51;;;;;;;1.05;0.75;;;10.50;69.80;;;;;;4968434;28;20117;-66
2022/04/07 05:42:17;;;;;;;2.97;0.80;;;10.60;69.80;;;;;;4976420;28;20035;-65
2022/04/07 05:44:43;;;;;;;0.73;0.50;;;10.60;69.90;;;;;;4956319;28;20552;-65
2022/04/07 05:47:09;;;;;;;0.60;0.60;;;10.60;69.90;;;;;;4965635;28;20133;-68
2022/04/07 05:49:35;;;;;;;1.85;1.30;;;10.60;70.10;;;;;;4976987;28;20225;-68
2022/04/07 05:52:03;;;;;;;0.73;0.73;;;10.70;69.80;;;;;;4963359;28;20073;-68
2022/04/07 05:54:29;;;;;;;0.50;0.40;;;10.60;69.70;;;;;;4957904;28;20039;-68
2022/04/07 05:56:55;;;;;;;1.33;0.35;;;10.70;69.70;;;;;;4978951;28;20038;-68
2022/04/07 05:59:20;;;;;;;1.02;0.38;;;10.70;69.60;;;;;;4968761;28;20037;-68
2022/04/07 06:01:46;;;;;;;1.10;0.40;;;10.70;69.50;;;;;;4957806;28;20055;-67
2022/04/07 06:04:12;;;;;;;0.75;0.60;;;10.70;69.70;;;;;;4971938;28;20042;-67
2022/04/07 06:06:37;;;;;;;0.52;0.30;;;10.80;69.50;;;;;;4979547;28;20030;-68
2022/04/07 06:09:03;;;;;;;0.40;0.40;;;10.80;69.30;;;;;;4955622;28;20031;-68
2022/04/07 06:11:29;;;;;;;3.35;0.50;;;10.80;69.20;;;;;;4965484;28;20030;-68
2022/04/07 06:13:54;;;;;;;1.20;0.50;;;10.80;69.10;;;;;;4975895;28;20066;-68
2022/04/07 06:16:21;;;;;;;1.88;0.80;;;10.80;69.00;;;;;;4964937;28;20053;-68
2022/04/07 06:18:46;;;;;;;2.42;1.23;;;10.90;69.10;;;;;;4964087;28;20078;-67
2022/04/07 06:21:12;;;;;;;3.72;1.90;;;10.90;69.00;;;;;;4981168;28;20042;-67
2022/04/07 06:23:39;;;;;;;0.88;0.60;;;10.90;69.00;;;;;;4973635;28;20039;-68
2022/04/07 06:26:04;;;;;;;1.15;0.32;;;10.90;68.70;;;;;;4960782;28;20037;-68
2022/04/07 06:28:30;;;;;;;0.60;0.50;;;11.00;68.60;;;;;;4976177;28;20133;-68
2022/04/07 06:30:56;;;;;;;3.35;0.30;;;11.00;68.60;;;;;;4975356;28;20034;-68
2022/04/07 06:33:21;;;;;;;1.05;0.40;;;11.10;68.70;;;;;;4962993;28;20049;-68
2022/04/07 06:35:49;;;;;;;0.43;0.40;;;11.10;68.60;;;;;;4972819;28;20038;-67
2022/04/07 06:38:16;;;;;;;0.77;0.20;;;11.10;68.50;;;;;;4979484;28;20506;-68
2022/04/07 06:40:41;;;;;;;0.70;0.40;;;11.20;68.30;;;;;;4965607;28;20065;-67
2022/04/07 06:43:07;;;;;;;4.65;0.40;;;11.20;68.10;;;;;;4966365;28;20490;-68
2022/04/07 06:45:33;;;;;;;1.38;0.40;;;11.30;68.00;;;;;;4980632;28;20034;-67
2022/04/07 06:47:58;;;;;;;1.10;0.30;;;11.30;67.80;;;;;;4980289;28;20549;-68
2022/04/07 06:50:25;;;;;;;6.53;0.30;;;11.40;67.90;;;;;;4980593;28;20573;-68
2022/04/07 06:52:52;;;;;;;1.65;0.30;;;11.40;67.50;;;;;;4958876;28;20042;-68
2022/04/07 06:55:18;;;;;;;0.40;0.20;;;11.50;67.30;;;;;;4967853;28;20499;-67
2022/04/07 06:58:06;;;;;;;0.85;0.13;;;11.50;67.10;;;;;;4979122;28;20058;-66
2022/04/07 07:00:34;;;;;;;0.30;0.20;;;11.60;66.40;;;;;;4961364;28;20122;-68
2022/04/07 07:03:02;;;;;;;0.25;0.15;;;11.60;66.70;;;;;;4963349;28;20054;-67
2022/04/07 07:05:31;;;;;;;0.40;0.10;;;11.70;66.60;;;;;;4981900;28;20354;-67
2022/04/07 07:07:56;;;;;;;1.10;0.20;;;11.70;66.30;;;;;;4968420;28;20033;-67
2022/04/07 07:10:30;;;;;;;0.82;0.20;;;11.70;65.90;;;;;;4962695;28;20327;-67
2022/04/07 07:12:59;;;;;;;0.10;0.10;;;11.80;65.40;;;;;;4979190;28;20129;-68
2022/04/07 07:15:25;;;;;;;0.15;0.10;;;11.80;65.50;;;;;;4970762;28;20560;-69
2022/04/07 07:17:51;;;;;;;0.63;0.20;;;11.80;65.10;;;;;;4960757;28;20039;-68
2022/04/07 07:20:20;;;;;;;0.45;0.20;;;11.80;65.00;;;;;;4976552;28;20031;-67
2022/04/07 07:22:46;;;;;;;0.65;0.17;;;11.80;64.80;;;;;;4975517;28;20058;-68
2022/04/07 07:25:12;;;;;;;3.22;0.30;;;11.80;64.80;;;;;;4961217;28;20051;-67
2022/04/07 07:27:47;;;;;;;1.65;0.32;;;11.80;64.70;;;;;;4967649;28;20489;-68
2022/04/07 07:30:15;;;;;;;0.95;0.20;;;11.90;64.30;;;;;;4979424;28;20035;-69
2022/04/07 07:32:45;;;;;;;2.88;0.70;;;11.90;64.20;;;;;;4962174;28;20070;-68
2022/04/07 07:35:11;;;;;;;0.57;0.40;;;11.90;64.30;;;;;;4966460;28;20038;-67
2022/04/07 07:37:46;;;;;;;2.40;1.00;;;11.90;64.30;;;;;;4980097;28;20035;-67
2022/04/07 07:40:12;;;;;;;4.25;1.50;;;12.00;64.20;;;;;;4971543;28;20058;-68
2022/04/07 07:42:38;;;;;;;5.82;2.50;;;12.10;64.00;;;;;;4975552;28;20037;-69
2022/04/07 07:45:05;;;;;;;5.07;1.42;;;12.10;64.80;;;;;;4959717;28;20027;-67
2022/04/07 07:47:30;;;;;;;11.48;4.95;;;12.20;63.00;;;;;;4968192;28;20493;-68
2022/04/07 07:49:56;;;;;;;4.28;1.95;;;12.20;63.30;;;;;;4978859;28;20055;-67
2022/04/07 07:52:22;;;;;;;3.83;1.30;;;12.30;63.10;;;;;;4963829;28;20039;-68
2022/04/07 07:54:48;;;;;;;3.33;1.10;;;12.40;63.90;;;;;;4978024;28;20094;-67
2022/04/07 07:57:13;;;;;;;6.43;2.10;;;12.50;62.50;;;;;;4980451;28;20406;-67
2022/04/07 07:59:39;;;;;;;7.30;3.25;;;12.60;61.80;;;;;;4968685;28;20410;-67
2022/04/07 08:02:05;;;;;;;9.98;2.83;;;12.70;62.40;;;;;;4954660;28;20127;-69
2022/04/07 08:04:30;;;;;;;7.18;3.20;;;12.80;62.30;;;;;;4977928;28;20041;-68
2022/04/07 08:06:56;;;;;;;6.00;2.97;;;12.90;61.60;;;;;;4974555;28;20035;-68
2022/04/07 08:09:22;;;;;;;3.92;1.98;;;13.00;61.50;;;;;;4959239;28;20039;-68
2022/04/07 08:11:48;;;;;;;2.80;1.20;;;13.00;61.00;;;;;;4969587;28;20033;-68
2022/04/07 08:14:13;;;;;;;9.13;1.80;;;13.10;60.90;;;;;;4979869;28;20085;-68
2022/04/07 08:16:39;;;;;;;1.73;0.60;;;13.10;60.90;;;;;;4960698;28;20065;-70
2022/04/07 08:19:05;;;;;;;2.47;0.85;;;13.20;61.20;;;;;;4963231;28;20037;-68
2022/04/07 08:21:32;;;;;;;5.10;2.20;;;13.30;60.10;;;;;;4982170;28;20113;-68
2022/04/07 08:23:58;;;;;;;1.65;0.90;;;13.30;60.20;;;;;;4966429;28;20054;-68
2022/04/07 08:26:23;;;;;;;1.23;0.77;;;13.40;60.20;;;;;;4974943;28;20403;-67
2022/04/07 08:28:49;;;;;;;1.70;0.50;;;13.40;60.10;;;;;;4977636;28;20390;-68
2022/04/07 08:31:16;;;;;;;1.25;0.70;;;13.50;60.00;;;;;;4972926;28;20042;-68
2022/04/07 08:33:41;;;;;;;2.13;1.35;;;13.50;59.90;;;;;;4962076;28;20134;-68
2022/04/07 08:36:07;;;;;;;2.30;0.88;;;13.60;59.60;;;;;;4973843;28;20066;-68
2022/04/07 08:38:32;;;;;;;3.33;1.73;;;13.60;59.30;;;;;;4977074;28;20406;-68
2022/04/07 08:40:59;;;;;;;4.53;1.65;;;13.60;59.30;;;;;;4964045;28;20038;-68
2022/04/07 08:43:25;;;;;;;3.83;1.70;;;13.60;58.90;;;;;;4973169;28;20534;-68
2022/04/07 08:45:51;;;;;;;1.85;1.02;;;13.60;59.00;;;;;;4958653;28;20079;-69
2022/04/07 08:48:17;;;;;;;2.63;1.23;;;13.60;59.20;;;;;;4974863;28;20042;-68
2022/04/07 08:50:44;;;;;;;2.75;1.77;;;13.60;59.50;;;;;;4979200;28;20034;-68
2022/04/07 08:53:12;;;;;;;5.80;1.02;;;13.60;59.20;;;;;;4979497;28;20641;-67
2022/04/07 08:55:38;;;;;;;2.83;1.00;;;13.60;59.40;;;;;;4970237;28;20035;-68
2022/04/07 08:58:04;;;;;;;1.27;0.28;;;13.60;59.40;;;;;;4958811;28;20113;-67
2022/04/07 09:00:30;;;;;;;1.92;0.32;;;13.70;59.40;;;;;;4975291;28;20027;-67
2022/04/07 09:02:56;;;;;;;1.00;0.38;;;13.70;59.20;;;;;;4975745;28;20031;-70
2022/04/07 09:05:26;;;;;;;0.73;0.43;;;13.80;59.10;;;;;;4958666;28;20166;-64
2022/04/07 09:07:54;;;;;;;0.43;0.10;;;13.80;59.00;;;;;;4971712;28;20042;-67
2022/04/07 09:10:22;;;;;;;0.30;0.20;;;13.80;59.20;;;;;;4979188;28;20042;-68
2022/04/07 09:12:48;;;;;;;0.10;0.10;;;13.90;58.90;;;;;;4977064;28;20038;-68
2022/04/07 09:15:14;;;;;;;1.15;0.17;;;13.90;59.30;;;;;;4976301;28;20043;-68
2022/04/07 09:17:52;;;;;;;0.10;0.10;;;14.00;58.60;;;;;;4993607;28;20062;-68
2022/04/07 09:20:18;;;;;;;0.40;0.20;;;14.00;58.50;;;;;;4962539;28;20034;-67
2022/04/07 09:22:43;;;;;;;2.10;0.22;;;14.10;58.30;;;;;;4962639;28;20578;-67
2022/04/07 09:25:12;;;;;;;0.30;0.20;;;14.20;58.70;;;;;;4978620;28;20370;-68
2022/04/07 09:27:41;;;;;;;0.20;0.20;;;14.20;58.10;;;;;;4969143;28;20077;-67
2022/04/07 09:30:08;;;;;;;2.10;0.28;;;14.20;58.20;;;;;;4959247;28;20379;-69
2022/04/07 09:32:42;;;;;;;1.80;0.17;;;14.30;58.00;;;;;;4976486;28;20041;-68
2022/04/07 09:35:08;;;;;;;1.23;0.20;;;14.30;57.70;;;;;;4973851;28;20069;-68
2022/04/07 09:37:34;;;;;;;2.35;0.47;;;14.40;57.90;;;;;;4959457;28;20062;-67
2022/04/07 09:40:13;;;;;;;1.17;0.20;;;14.40;57.60;;;;;;4973350;28;20398;-68
2022/04/07 09:42:41;;;;;;;3.67;0.20;;;14.40;57.00;;;;;;4976880;28;20030;-67
2022/04/07 09:45:11;;;;;;;0.63;0.10;;;14.50;57.00;;;;;;4957931;28;20031;-69
2022/04/07 09:47:43;;;;;;;0.55;0.20;;;14.50;56.70;;;;;;4969101;28;20383;-69
2022/04/07 09:50:19;;;;;;;1.75;0.10;;;14.50;56.80;;;;;;4977139;28;20034;-68
2022/04/07 09:53:05;;;;;;;1.45;0.10;;;14.50;57.00;;;;;;4958905;28;20113;-68
2022/04/07 09:55:37;;;;;;;3.35;0.10;;;14.50;56.90;;;;;;4968890;28;20035;-68
2022/04/07 09:58:06;;;;;;;2.30;0.10;;;14.50;57.10;;;;;;4978594;28;20026;-68
2022/04/07 10:00:33;;;;;;;2.80;0.13;;;14.50;57.30;;;;;;4961097;28;20039;-67
2022/04/07 10:02:59;;;;;;;1.45;0.20;;;14.50;57.50;;;;;;4962529;28;20031;-69
2022/04/07 10:05:25;;;;;;;0.40;0.22;;;14.60;57.30;;;;;;4977589;28;20035;-68
2022/04/07 10:07:51;;;;;;;1.40;0.20;;;14.60;57.10;;;;;;4966577;28;20034;-67
2022/04/07 10:10:18;;;;;;;1.48;0.20;;;14.60;57.10;;;;;;4957967;28;20027;-67
2022/04/07 10:12:45;;;;;;;3.22;0.28;;;14.60;57.30;;;;;;4974126;28;20645;-64
2022/04/07 10:15:11;;;;;;;3.28;0.17;;;14.60;56.80;;;;;;4974959;28;20031;-69
2022/04/07 10:17:38;;;;;;;6.53;0.38;;;14.60;56.70;;;;;;4968570;28;20045;-68
2022/04/07 10:20:11;;;;;;;2.15;0.20;;;14.60;56.60;;;;;;4957165;28;20304;-67
2022/04/07 10:22:52;;;;;;;0.38;0.10;;;14.70;56.50;;;;;;4973284;28;20042;-68
2022/04/07 10:25:18;;;;;;;2.40;0.20;;;14.60;56.50;;;;;;4969558;28;20042;-68
2022/04/07 10:27:55;;;;;;;1.17;0.20;;;14.70;57.00;;;;;;4958881;28;20039;-66
2022/04/07 10:30:21;;;;;;;1.73;0.20;;;14.70;57.10;;;;;;4973802;28;20031;-68
2022/04/07 10:32:48;;;;;;;2.53;0.08;;;14.70;56.60;;;;;;4975167;28;20066;-67
2022/04/07 10:35:38;;;;;;;1.65;0.13;;;14.70;56.80;;;;;;4956358;28;20430;-68
2022/04/07 10:38:07;;;;;;;1.85;0.10;;;14.60;56.70;;;;;;4972233;28;20031;-68
2022/04/07 10:40:37;;;;;;;1.83;0.20;;;14.70;57.40;;;;;;4977220;28;20699;-68
2022/04/07 10:43:15;;;;;;;0.22;0.10;;;14.60;57.60;;;;;;4955812;28;20043;-69
2022/04/07 10:45:41;;;;;;;1.45;0.10;;;14.70;56.80;;;;;;4965122;28;20121;-68
2022/04/07 10:48:26;;;;;;;1.00;0.10;;;14.60;57.30;;;;;;4977542;28;20110;-68
2022/04/07 10:51:09;;;;;;;5.50;0.22;;;14.70;57.10;;;;;;4976457;28;20030;-68
2022/04/07 10:53:35;;;;;;;0.45;0.25;;;14.70;57.10;;;;;;4976567;28;20042;-68
2022/04/07 10:56:05;;;;;;;1.25;0.10;;;14.70;57.40;;;;;;4977562;28;20034;-68
2022/04/07 10:58:49;;;;;;;4.28;0.10;;;14.70;57.00;;;;;;4977586;28;20049;-67
2022/04/07 11:01:33;;;;;;;0.40;0.17;;;14.60;57.20;;;;;;4979108;28;20084;-67
2022/04/07 11:04:18;;;;;;;1.27;0.10;;;14.60;57.60;;;;;;4980673;28;20630;-68
2022/04/07 11:07:08;;;;;;;0.30;0.03;;;14.60;57.40;;;;;;4978354;28;20085;-70
2022/04/07 11:09:49;;;;;;;0.82;0.10;;;14.60;57.40;;;;;;4971677;28;20290;-68
2022/04/07 11:12:18;;;;;;;0.40;0.10;;;14.60;57.50;;;;;;4962116;28;20442;-68
2022/04/07 11:14:48;;;;;;;2.38;0.25;;;14.70;57.50;;;;;;4956592;28;20565;-68
2022/04/07 11:17:33;;;;;;;0.10;0.10;;;14.70;57.60;;;;;;4967240;28;20052;-68
2022/04/07 11:20:15;;;;;;;0.10;0.10;;;14.80;57.50;;;;;;4979768;28;20696;-68
2022/04/07 11:22:46;;;;;;;1.23;0.10;;;14.80;57.00;;;;;;4961564;28;20039;-69
2022/04/07 11:25:13;;;;;;;0.75;0.17;;;14.90;57.30;;;;;;4969724;28;20542;-68
2022/04/07 11:27:42;;;;;;;0.75;0.20;;;14.90;57.20;;;;;;4960442;28;20045;-67
2022/04/07 11:30:14;;;;;;;3.10;0.20;;;14.90;57.20;;;;;;4975581;28;20036;-68
2022/04/07 11:33:13;;;;;;;1.75;0.20;;;14.90;57.30;;;;;;4986484;28;20108;-69
2022/04/07 11:35:39;;;;;;;0.22;0.22;;;15.00;57.00;;;;;;4979488;28;20057;-68
2022/04/07 11:38:05;;;;;;;0.82;0.10;;;15.00;57.30;;;;;;4965202;28;20038;-67
2022/04/07 11:40:31;;;;;;;0.50;0.15;;;15.00;57.40;;;;;;4960230;28;20043;-68
2022/04/07 11:42:58;;;;;;;0.60;0.10;;;15.10;57.00;;;;;;4985518;28;20035;-67
2022/04/07 11:45:33;;;;;;;0.32;0.10;;;15.10;57.20;;;;;;4971974;28;20502;-68
2022/04/07 11:47:58;;;;;;;;;;;15.10;56.40;;;;;;4960720;28;20071;-68
2022/04/07 11:50:24;;;;;;;2.22;0.10;;;15.20;56.50;;;;;;4974081;28;19961;-67
2022/04/07 11:52:50;;;;;;;0.10;0.08;;;15.20;56.40;;;;;;4976034;28;20587;-66
2022/04/07 11:55:29;;;;;;;2.97;0.10;;;15.10;56.00;;;;;;4981847;28;20150;-67
2022/04/07 11:57:59;;;;;;;2.08;0.10;;;15.10;56.40;;;;;;4966924;28;20060;-69
2022/04/07 12:00:34;;;;;;;3.30;0.10;;;15.10;56.80;;;;;;4959061;28;20130;-69
2022/04/07 12:03:04;;;;;;;0.10;0.10;;;15.00;56.20;;;;;;4979739;28;20038;-68
2022/04/07 12:05:30;;;;;;;0.80;0.13;;;15.00;56.50;;;;;;4969773;28;20027;-67
2022/04/07 12:08:11;;;;;;;1.83;0.08;;;14.90;56.30;;;;;;4960952;28;20041;-67
2022/04/07 12:10:41;;;;;;;1.02;0.17;;;14.90;56.10;;;;;;4971261;28;20027;-68
2022/04/07 12:13:07;;;;;;;0.10;0.10;;;14.90;56.70;;;;;;4965518;28;20117;-67
2022/04/07 12:15:37;;;;;;;0.98;0.10;;;14.80;57.30;;;;;;4981095;28;20030;-69
2022/04/07 12:18:06;;;;;;;2.88;0.22;;;14.80;58.10;;;;;;4967381;28;20036;-67
2022/04/07 12:20:33;;;;;;;2.55;0.20;;;14.80;59.20;;;;;;4962468;28;20117;-68
2022/04/07 12:23:09;;;;;;;1.40;0.30;;;14.70;59.50;;;;;;4981033;28;20513;-67
2022/04/07 12:25:39;;;;;;;1.77;0.10;;;14.70;60.60;;;;;;4971271;28;20035;-67
2022/04/07 12:28:08;;;;;;;2.92;0.10;;;14.50;60.10;;;;;;4961941;28;20070;-67
2022/04/07 12:30:45;;;;;;;0.20;0.00;;;14.40;60.60;;;;;;4978055;28;20493;-66
2022/04/07 12:33:11;;;;;;;0.13;0.10;;;14.20;61.00;;;;;;4974539;28;20027;-67
2022/04/07 12:35:44;;;;;;;0.20;0.20;;;14.10;61.70;;;;;;4961626;28;20134;-67
2022/04/07 12:38:11;;;;;;;0.32;0.20;;;14.00;62.30;;;;;;4974501;28;20113;-67
2022/04/07 12:40:38;;;;;;;0.17;0.08;;;13.90;62.30;;;;;;4978299;28;20034;-67
2022/04/07 12:43:04;;;;;;;0.30;0.10;;;13.80;62.70;;;;;;4961647;28;20450;-68
2022/04/07 12:45:30;;;;;;;0.35;0.10;;;13.80;62.70;;;;;;4969878;28;20493;-68
2022/04/07 12:48:08;;;;;;;0.17;0.10;;;13.70;62.90;;;;;;4980146;28;20081;-68
2022/04/07 12:50:34;;;;;;;1.65;0.10;;;13.70;62.40;;;;;;4962761;28;20031;-67
2022/04/07 12:53:00;;;;;;;0.60;0.10;;;13.70;62.20;;;;;;4965823;28;20054;-68